Time;durP1;ratioP1;P1;durP2;ratioP2;P2;SDS_P1;SDS_P2;PMS_P1;PMS_P2;Temp;Humidity;BMP_temperature;BMP_pressure;BME280_temperature;BME280_humidity;BME280_pressure;Samples;Min_cycle;Max_cycle;Signal;HPM_P1;HPM_P2
2022/05/20 00:00:17;;;;;;;;;;;20.80;96.50;;;;;;4315836;33;42811;-76
2022/05/20 00:02:46;;;;;;;;;;;20.80;96.60;;;;;;4300045;33;43538;-76
2022/05/20 00:05:17;;;;;;;;;;;20.80;96.60;;;;;;4301152;33;45787;-76
2022/05/20 00:07:46;;;;;;;;;;;20.80;96.40;;;;;;4300905;33;43720;-76
2022/05/20 00:10:17;;;;;;;;;;;20.80;96.50;;;;;;4301750;33;45724;-76
2022/05/20 00:12:45;;;;;;;;;;;20.80;96.70;;;;;;4301293;33;43495;-76
2022/05/20 00:15:16;;;;;;;;;;;20.80;96.70;;;;;;4301517;33;43198;-76
2022/05/20 00:17:43;;;;;;;;;;;20.80;96.60;;;;;;4300497;33;43868;-76
2022/05/20 00:20:11;;;;;;;;;;;20.80;96.70;;;;;;4300205;33;42432;-76
2022/05/20 00:22:38;;;;;;;;;;;20.80;96.80;;;;;;4299996;33;44279;-76
2022/05/20 00:28:01;;;;;;;;;;;20.80;96.80;;;;;;4301513;33;43069;-76
2022/05/20 00:30:28;;;;;;;;;;;20.80;96.80;;;;;;4301420;33;44094;-76
2022/05/20 00:32:55;;;;;;;;;;;20.70;96.90;;;;;;4301579;33;44258;-76
2022/05/20 00:35:23;;;;;;;;;;;20.80;96.80;;;;;;4299976;33;43048;-76
2022/05/20 00:37:53;;;;;;;;;;;20.70;96.80;;;;;;4300616;33;43899;-76
2022/05/20 00:40:21;;;;;;;;;;;20.70;96.80;;;;;;4301460;33;43918;-76
2022/05/20 00:42:51;;;;;;;;;;;20.70;96.80;;;;;;4300352;33;44151;-76
2022/05/20 00:45:18;;;;;;;;;;;20.70;96.90;;;;;;4301008;33;42843;-76
2022/05/20 00:47:45;;;;;;;;;;;20.70;96.80;;;;;;4301256;33;43083;-76
2022/05/20 00:50:14;;;;;;;;;;;20.70;96.80;;;;;;4300872;33;44826;-76
2022/05/20 00:52:47;;;;;;;;;;;20.70;96.80;;;;;;4299810;33;42953;-76
2022/05/20 00:55:16;;;;;;;;;;;20.70;96.80;;;;;;4301344;33;42844;-76
2022/05/20 00:57:52;;;;;;;;;;;20.70;96.90;;;;;;4301182;33;43639;-76
2022/05/20 01:00:21;;;;;;;;;;;20.70;96.90;;;;;;4304297;33;43024;-76
2022/05/20 01:02:53;;;;;;;;;;;20.60;96.90;;;;;;4313833;33;43964;-76
2022/05/20 01:05:23;;;;;;;;;;;20.70;96.90;;;;;;4318551;33;45180;-76
2022/05/20 01:07:53;;;;;;;;;;;20.60;97.30;;;;;;4318173;33;43689;-76
2022/05/20 01:10:20;;;;;;;;;;;20.60;97.00;;;;;;4305028;33;42917;-76
2022/05/20 01:12:51;;;;;;;;;;;20.60;97.00;;;;;;4318499;33;44091;-76
2022/05/20 01:15:21;;;;;;;;;;;20.60;97.00;;;;;;4305068;33;43739;-75
2022/05/20 01:17:49;;;;;;;;;;;20.60;96.90;;;;;;4305316;33;46030;-76
2022/05/20 01:20:19;;;;;;;;;;;20.60;96.90;;;;;;4317990;33;43932;-76
2022/05/20 01:22:58;;;;;;;;;;;20.60;96.90;;;;;;4318112;33;43643;-76
2022/05/20 01:25:29;;;;;;;;;;;20.60;96.90;;;;;;4304835;33;42491;-76
2022/05/20 01:28:02;;;;;;;;;;;20.60;96.90;;;;;;4318781;33;20061;-76
2022/05/20 01:30:32;;;;;;;;;;;20.50;96.80;;;;;;4317870;33;42519;-76
2022/05/20 01:33:06;;;;;;;;;;;20.50;96.80;;;;;;4304649;33;42577;-76
2022/05/20 01:35:43;;;;;;;;;;;20.50;96.90;;;;;;4317857;33;44187;-76
2022/05/20 01:38:14;;;;;;;;;;;20.50;97.00;;;;;;4318159;33;43439;-76
2022/05/20 01:40:44;;;;;;;;;;;20.40;96.90;;;;;;4305010;33;43470;-76
2022/05/20 01:43:36;;;;;;;;;;;20.40;96.90;;;;;;4317731;33;42846;-76
2022/05/20 01:46:22;;;;;;;;;;;20.40;96.90;;;;;;4296149;33;43798;-76
2022/05/20 01:48:52;;;;;;;;;;;20.40;96.90;;;;;;4305137;33;45772;-76
2022/05/20 01:51:21;;;;;;;;;;;20.40;96.90;;;;;;4317905;33;42599;-76
2022/05/20 01:53:50;;;;;;;;;;;20.40;96.80;;;;;;4317551;33;45779;-76
2022/05/20 01:56:36;;;;;;;;;;;20.40;96.90;;;;;;4317590;33;43636;-76
2022/05/20 01:59:05;;;;;;;;;;;20.30;96.90;;;;;;4318324;33;21761;-76
2022/05/20 02:01:37;;;;;;;;;;;20.30;96.90;;;;;;4302073;33;44458;-75
2022/05/20 02:04:09;;;;;;;;;;;20.30;97.00;;;;;;4303514;33;43943;-76
2022/05/20 02:06:39;;;;;;;;;;;20.30;96.90;;;;;;4302885;33;43641;-76
2022/05/20 02:09:11;;;;;;;;;;;20.30;97.00;;;;;;4303039;33;43678;-76
2022/05/20 02:11:41;;;;;;;;;;;20.30;96.90;;;;;;4302313;33;42834;-75
2022/05/20 02:14:12;;;;;;;;;;;20.30;97.00;;;;;;4303079;33;43162;-76
2022/05/20 02:16:42;;;;;;;;;;;20.30;96.90;;;;;;4302760;33;43372;-76
2022/05/20 02:19:19;;;;;;;;;;;20.20;96.90;;;;;;4301681;33;44332;-76
2022/05/20 02:21:47;;;;;;;;;;;20.20;96.90;;;;;;4303340;33;43873;-76
2022/05/20 02:24:20;;;;;;;;;;;20.20;97.00;;;;;;4303008;33;42565;-76
2022/05/20 02:26:52;;;;;;;;;;;20.20;97.00;;;;;;4303075;33;43101;-76
2022/05/20 02:29:23;;;;;;;;;;;20.20;97.00;;;;;;4303389;33;20849;-76
2022/05/20 02:32:09;;;;;;;;;;;20.10;97.00;;;;;;4303121;33;43697;-76
2022/05/20 02:34:36;;;;;;;;;;;20.20;97.10;;;;;;4301917;33;43531;-76
2022/05/20 02:37:17;;;;;;;;;;;20.20;97.10;;;;;;4301904;33;43103;-76
2022/05/20 02:39:44;;;;;;;;;;;20.10;97.10;;;;;;4302702;33;42136;-76
2022/05/20 02:42:12;;;;;;;;;;;20.10;97.10;;;;;;4302551;33;42895;-76
2022/05/20 02:44:39;;;;;;;;;;;20.10;97.10;;;;;;4301531;33;43741;-76
2022/05/20 02:47:12;;;;;;;;;;;20.10;97.00;;;;;;4301163;33;45786;-76
2022/05/20 02:49:39;;;;;;;;;;;20.10;97.10;;;;;;4302679;33;42488;-76
2022/05/20 02:52:11;;;;;;;;;;;20.10;97.10;;;;;;4302153;33;43667;-76
2022/05/20 02:54:46;;;;;;;;;;;20.10;97.10;;;;;;4302778;33;43350;-76
2022/05/20 02:57:13;;;;;;;;;;;20.10;97.20;;;;;;4302332;33;42889;-76
2022/05/20 03:05:16;;;;;;;;;;;20.00;97.20;;;;;;4317213;33;43091;-76
2022/05/20 03:07:43;;;;;;;;;;;20.00;97.20;;;;;;4303594;33;43050;-76
2022/05/20 03:10:12;;;;;;;;;;;20.00;97.20;;;;;;4303931;33;43079;-76
2022/05/20 03:12:43;;;;;;;;;;;20.00;97.30;;;;;;4316780;33;43742;-76
2022/05/20 03:15:11;;;;;;;;;;;19.90;97.20;;;;;;4303847;33;42514;-76
2022/05/20 03:17:39;;;;;;;;;;;20.00;97.30;;;;;;4303871;33;44237;-76
2022/05/20 03:20:08;;;;;;;;;;;20.00;97.30;;;;;;4303499;33;42819;-76
2022/05/20 03:22:36;;;;;;;;;;;19.90;97.30;;;;;;4316101;33;42570;-76
2022/05/20 03:25:04;;;;;;;;;;;19.90;97.30;;;;;;4316494;33;43242;-76
2022/05/20 03:27:34;;;;;;;;;;;19.90;97.40;;;;;;4316682;33;43376;-76
2022/05/20 03:30:02;;;;;;;;;;;19.90;97.50;;;;;;4304165;33;20176;-76
2022/05/20 03:32:34;;;;;;;;;;;19.90;97.50;;;;;;4316275;33;42645;-76
2022/05/20 03:35:02;;;;;;;;;;;19.90;97.50;;;;;;4303376;33;44074;-76
2022/05/20 03:37:29;;;;;;;;;;;19.80;97.50;;;;;;4316635;33;43032;-76
2022/05/20 03:39:59;;;;;;;;;;;19.80;97.50;;;;;;4316071;33;43027;-76
2022/05/20 03:42:29;;;;;;;;;;;19.90;97.50;;;;;;4316510;33;45742;-76
2022/05/20 03:44:59;;;;;;;;;;;19.80;97.50;;;;;;4316197;33;43592;-76
2022/05/20 03:47:28;;;;;;;;;;;19.80;97.90;;;;;;4316214;33;42721;-75
2022/05/20 03:49:56;;;;;;;;;;;19.80;97.60;;;;;;4316346;33;43645;-76
2022/05/20 03:52:25;;;;;;;;;;;19.80;97.70;;;;;;4316287;33;42910;-76
2022/05/20 03:54:52;;;;;;;;;;;19.70;97.70;;;;;;4303268;33;42948;-76
2022/05/20 03:57:23;;;;;;;;;;;19.70;97.70;;;;;;4316018;33;44334;-76
2022/05/20 03:59:50;;;;;;;;;;;19.70;97.80;;;;;;4316306;33;44251;-76
2022/05/20 04:02:20;;;;;;;;;;;19.70;97.80;;;;;;4316626;33;20073;-76
2022/05/20 04:04:51;;;;;;;;;;;19.70;97.90;;;;;;4303070;33;43591;-76
2022/05/20 04:07:25;;;;;;;;;;;19.70;97.90;;;;;;4316183;33;44200;-76
2022/05/20 04:09:55;;;;;;;;;;;19.60;97.90;;;;;;4302836;33;42407;-76
2022/05/20 04:12:37;;;;;;;;;;;19.60;97.90;;;;;;4316053;33;43596;-76
2022/05/20 04:15:06;;;;;;;;;;;19.60;97.90;;;;;;4302895;33;43638;-76
2022/05/20 04:17:33;;;;;;;;;;;19.60;98.00;;;;;;4315666;33;43104;-76
2022/05/20 04:20:01;;;;;;;;;;;19.60;98.10;;;;;;4316047;33;43221;-76
2022/05/20 04:22:32;;;;;;;;;;;19.60;98.10;;;;;;4316031;33;43712;-76
2022/05/20 04:24:59;;;;;;;;;;;19.50;98.20;;;;;;4316118;33;43032;-76
2022/05/20 04:27:27;;;;;;;;;;;19.60;98.30;;;;;;4315774;33;42638;-76
2022/05/20 04:29:58;;;;;;;;;;;19.50;98.30;;;;;;4315984;33;42496;-76
2022/05/20 04:32:25;;;;;;;;;;;19.50;98.30;;;;;;4316906;33;20006;-76
2022/05/20 04:34:57;;;;;;;;;;;19.50;98.30;;;;;;4315727;33;42648;-76
2022/05/20 04:37:27;;;;;;;;;;;19.50;98.40;;;;;;4316131;33;44370;-75
2022/05/20 04:39:55;;;;;;;;;;;19.50;98.50;;;;;;4302869;33;43695;-75
2022/05/20 04:48:00;;;;;;;;;;;19.50;98.60;;;;;;4315822;33;42096;-75
2022/05/20 04:50:30;;;;;;;;;;;19.40;98.60;;;;;;4302900;33;43268;-75
2022/05/20 04:54:49;;;;;;;;;;;19.40;98.70;;;;;;4316056;33;44804;-75
2022/05/20 04:55:56;;;;;;;;;;;19.40;98.80;;;;;;4315523;33;42863;-75
2022/05/20 04:58:26;;;;;;;;;;;19.40;98.90;;;;;;4315284;33;44153;-75
2022/05/20 05:00:56;;;;;;;;;;;19.40;99.00;;;;;;4302800;33;43296;-74
2022/05/20 05:03:26;;;;;;;;;;;19.40;99.00;;;;;;4316446;33;20001;-75
2022/05/20 05:05:56;;;;;;;;;;;19.40;99.10;;;;;;4301968;33;42130;-75
2022/05/20 05:08:23;;;;;;;;;;;19.40;99.30;;;;;;4315319;33;43672;-75
2022/05/20 05:10:53;;;;;;;;;;;19.40;99.30;;;;;;4315549;33;42882;-75
2022/05/20 05:13:22;;;;;;;;;;;19.40;99.30;;;;;;4302105;33;44596;-75
2022/05/20 05:15:52;;;;;;;;;;;19.30;99.40;;;;;;4302037;33;44015;-75
2022/05/20 05:18:23;;;;;;;;;;;19.40;99.50;;;;;;4315600;33;43931;-75
2022/05/20 05:20:53;;;;;;;;;;;19.30;99.60;;;;;;4315803;33;43640;-75
2022/05/20 05:23:21;;;;;;;;;;;19.30;99.70;;;;;;4315604;33;43445;-75
2022/05/20 05:25:51;;;;;;;;;;;19.30;99.80;;;;;;4315117;33;43108;-75
2022/05/20 05:28:24;;;;;;;;;;;19.30;99.90;;;;;;4315650;33;45847;-75
2022/05/20 05:30:52;;;;;;;;;;;19.30;99.90;;;;;;4315603;33;43792;-75
2022/05/20 05:33:19;;;;;;;;;;;19.30;99.90;;;;;;4315190;33;44188;-75
2022/05/20 05:35:48;;;;;;;;;;;19.30;99.90;;;;;;4315195;33;43619;-75
2022/05/20 05:38:22;;;;;;;;;;;19.40;99.90;;;;;;4302832;33;42214;-75
2022/05/20 05:40:49;;;;;;;;;;;19.40;99.90;;;;;;4315377;33;43050;-75
2022/05/20 05:43:17;;;;;;;;;;;19.40;99.90;;;;;;4315707;33;43017;-75
2022/05/20 05:45:44;;;;;;;;;;;19.30;99.90;;;;;;4317098;33;42917;-75
2022/05/20 05:48:17;;;;;;;;;;;19.40;99.90;;;;;;4304809;33;43023;-75
2022/05/20 05:50:45;;;;;;;;;;;19.40;99.90;;;;;;4305140;33;43635;-75
2022/05/20 05:53:20;;;;;;;;;;;19.40;99.90;;;;;;4304701;33;44206;-75
2022/05/20 05:55:58;;;;;;;;;;;19.40;99.90;;;;;;4317859;33;43497;-75
2022/05/20 05:58:26;;;;;;;;;;;19.40;99.90;;;;;;4317855;33;42582;-75
2022/05/20 06:00:54;;;;;;;;;;;19.40;99.90;;;;;;4317519;33;42807;-75
2022/05/20 06:03:24;;;;;;;;;;;19.40;99.90;;;;;;4317844;33;42634;-75
2022/05/20 06:05:52;;;;;;;;;;;19.40;99.90;;;;;;4318138;33;20383;-75
2022/05/20 06:08:22;;;;;;;;;;;19.40;99.90;;;;;;4317739;33;42433;-75
2022/05/20 06:10:59;;;;;;;;;;;19.40;99.90;;;;;;4317408;33;42941;-75
2022/05/20 06:13:28;;;;;;;;;;;19.40;99.90;;;;;;4304297;33;42587;-75
2022/05/20 06:15:56;;;;;;;;;;;19.40;99.90;;;;;;4317266;33;42891;-75
2022/05/20 06:18:24;;;;;;;;;;;19.40;99.90;;;;;;4317899;33;43702;-75
2022/05/20 06:20:51;;;;;;;;;;;19.50;99.90;;;;;;4317185;33;42849;-75
2022/05/20 06:23:23;;;;;;;;;;;19.50;99.90;;;;;;4317556;33;44935;-75
2022/05/20 06:25:53;;;;;;;;;;;19.50;99.90;;;;;;4304942;33;45286;-75
2022/05/20 06:28:43;;;;;;;;;;;19.50;99.90;;;;;;4317609;33;45808;-75
2022/05/20 06:31:10;;;;;;;;;;;19.50;99.90;;;;;;4304048;33;44206;-75
2022/05/20 06:33:38;;;;;;;;;;;19.50;99.90;;;;;;4304319;33;44692;-75
2022/05/20 06:41:56;;;;;;;;;;;19.60;99.90;;;;;;4271832;33;43062;-75
2022/05/20 06:44:28;;;;;;;;;;;19.70;99.90;;;;;;4260199;33;43748;-75
2022/05/20 06:46:55;;;;;;;;;;;19.70;99.90;;;;;;4294476;33;43745;-75
2022/05/20 06:49:25;;;;;;;;;;;19.70;99.90;;;;;;4316836;33;43266;-75
2022/05/20 06:51:54;;;;;;;;;;;19.70;99.90;;;;;;4316749;33;43653;-75
2022/05/20 06:54:22;;;;;;;;;;;19.70;99.90;;;;;;4316743;33;43771;-75
2022/05/20 06:56:52;;;;;;;;;;;19.70;99.90;;;;;;4315905;33;42929;-75
2022/05/20 06:59:20;;;;;;;;;;;19.80;99.90;;;;;;4316716;33;44877;-76
2022/05/20 07:01:52;;;;;;;;;;;19.80;99.90;;;;;;4316776;33;43251;-77
2022/05/20 07:04:39;;;;;;;;;;;19.80;99.90;;;;;;4317107;33;46391;-75
2022/05/20 07:07:06;;;;;;;;;;;19.80;99.90;;;;;;4317205;33;20014;-75
2022/05/20 07:09:33;;;;;;;;;;;19.80;99.90;;;;;;4303419;33;43739;-75
2022/05/20 07:12:01;;;;;;;;;;;19.80;99.90;;;;;;4316653;33;43569;-75
2022/05/20 07:14:28;;;;;;;;;;;19.90;99.90;;;;;;4316994;33;43705;-75
2022/05/20 07:16:55;;;;;;;;;;;19.80;99.90;;;;;;4316832;33;42494;-75
2022/05/20 07:19:25;;;;;;;;;;;19.90;99.90;;;;;;4303253;33;43774;-75
2022/05/20 07:21:52;;;;;;;;;;;19.90;99.90;;;;;;4316337;33;43076;-75
2022/05/20 07:24:19;;;;;;;;;;;19.90;99.90;;;;;;4316319;33;43486;-76
2022/05/20 07:26:49;;;;;;;;;;;19.90;99.90;;;;;;4304118;33;44180;-75
2022/05/20 07:29:16;;;;;;;;;;;19.90;99.90;;;;;;4316680;33;44837;-75
2022/05/20 07:31:43;;;;;;;;;;;19.90;99.90;;;;;;4303564;33;44999;-76
2022/05/20 07:34:16;;;;;;;;;;;19.90;99.90;;;;;;4316623;33;43703;-75
2022/05/20 07:36:43;;;;;;;;;;;20.00;99.90;;;;;;4316834;33;43020;-75
2022/05/20 07:39:10;;;;;;;;;;;20.00;99.90;;;;;;4316694;33;43087;-76
2022/05/20 07:41:37;;;;;;;;;;;20.00;99.90;;;;;;4303593;33;43696;-75
2022/05/20 07:44:07;;;;;;;;;;;20.00;99.90;;;;;;4303797;33;44233;-75
2022/05/20 07:46:34;;;;;;;;;;;20.00;99.90;;;;;;4316457;33;43754;-76
2022/05/20 07:49:04;;;;;;;;;;;20.00;99.90;;;;;;4315960;33;42816;-75
2022/05/20 07:51:32;;;;;;;;;;;20.10;99.90;;;;;;4316069;33;42984;-75
2022/05/20 07:54:04;;;;;;;;;;;20.10;99.90;;;;;;4302989;33;42521;-75
2022/05/20 07:56:36;;;;;;;;;;;20.10;99.90;;;;;;4316253;33;42863;-75
2022/05/20 07:59:08;;;;;;;;;;;20.10;99.90;;;;;;4316439;33;43114;-75
2022/05/20 08:01:37;;;;;;;;;;;20.10;99.90;;;;;;4315984;33;42168;-76
2022/05/20 08:07:10;;;;;;;;;;;20.10;99.90;;;;;;4315964;33;42921;-75
2022/05/20 08:09:37;;;;;;;;;;;20.20;99.90;;;;;;4316236;33;43068;-76
2022/05/20 08:12:04;;;;;;;;;;;20.20;99.90;;;;;;4303022;33;44199;-76
2022/05/20 08:14:44;;;;;;;;;;;20.20;99.90;;;;;;4316422;33;43010;-76
2022/05/20 08:17:11;;;;;;;;;;;20.20;99.90;;;;;;4315889;33;44214;-75
2022/05/20 08:19:38;;;;;;;;;;;20.20;99.90;;;;;;4315775;33;43720;-76
2022/05/20 08:22:08;;;;;;;;;;;20.20;99.90;;;;;;4302625;33;43523;-75
2022/05/20 08:24:35;;;;;;;;;;;20.20;99.90;;;;;;4316013;33;43677;-75
2022/05/20 08:27:02;;;;;;;;;;;20.20;99.90;;;;;;4315517;33;43927;-76
2022/05/20 08:29:32;;;;;;;;;;;20.30;99.90;;;;;;4315585;33;42759;-76
2022/05/20 08:31:59;;;;;;;;;;;20.30;99.90;;;;;;4316011;33;43744;-76
2022/05/20 08:34:26;;;;;;;;;;;20.30;99.90;;;;;;4315963;33;44192;-75
2022/05/20 08:36:56;;;;;;;;;;;20.30;99.90;;;;;;4302367;33;43934;-76
2022/05/20 08:39:27;;;;;;;;;;;20.30;99.90;;;;;;4315532;33;43699;-76
2022/05/20 08:41:54;;;;;;;;;;;20.40;99.90;;;;;;4315945;33;42615;-76
2022/05/20 08:44:24;;;;;;;;;;;20.40;99.90;;;;;;4315455;33;43073;-76
2022/05/20 08:47:04;;;;;;;;;;;20.40;99.90;;;;;;4315578;33;44203;-77
2022/05/20 08:49:31;;;;;;;;;;;20.40;99.90;;;;;;4315950;33;42904;-76
2022/05/20 08:51:58;;;;;;;;;;;20.40;99.90;;;;;;4315418;33;43868;-76
2022/05/20 08:54:28;;;;;;;;;;;20.40;99.90;;;;;;4315637;33;42917;-76
2022/05/20 08:56:55;;;;;;;;;;;20.40;99.90;;;;;;4315826;33;43867;-75
2022/05/20 08:59:25;;;;;;;;;;;20.50;99.90;;;;;;4303026;33;45100;-76
2022/05/20 09:01:52;;;;;;;;;;;20.50;99.90;;;;;;4315417;33;42602;-76
2022/05/20 09:04:22;;;;;;;;;;;20.50;99.90;;;;;;4315390;33;42909;-76
2022/05/20 09:07:03;;;;;;;;;;;20.50;99.90;;;;;;4315311;33;42608;-76
2022/05/20 09:09:39;;;;;;;;;;;20.50;99.90;;;;;;4315446;33;44311;-76
2022/05/20 09:12:10;;;;;;;;;;;20.50;99.90;;;;;;4315335;33;43284;-76
2022/05/20 09:17:24;;;;;;;;;;;20.60;99.90;;;;;;4315718;33;43037;-76
2022/05/20 09:19:54;;;;;;;;;;;20.60;99.90;;;;;;4303798;33;43888;-76
2022/05/20 09:22:29;;;;;;;;;;;20.60;99.90;;;;;;4318002;33;42877;-76
2022/05/20 09:24:59;;;;;;;;;;;20.70;99.90;;;;;;4318486;33;43775;-76
2022/05/20 09:27:31;;;;;;;;;;;20.70;99.90;;;;;;4318045;33;43200;-76
2022/05/20 09:30:02;;;;;;;;;;;20.70;99.90;;;;;;4318203;33;43784;-76
2022/05/20 09:32:43;;;;;;;;;;;20.70;99.90;;;;;;4317884;33;43529;-76
2022/05/20 09:35:36;;;;;;;;;;;20.70;99.90;;;;;;4317938;33;43786;-77
2022/05/20 09:38:10;;;;;;;;;;;20.70;99.90;;;;;;4298614;33;43712;-76
2022/05/20 09:40:41;;;;;;;;;;;20.70;99.90;;;;;;4319344;33;20006;-76
2022/05/20 09:43:50;;;;;;;;;;;20.80;99.90;;;;;;4318393;33;43831;-76
2022/05/20 09:46:28;;;;;;;;;;;20.80;99.90;;;;;;4294635;33;42847;-76
2022/05/20 09:49:15;;;;;;;;;;;20.80;99.90;;;;;;4318212;33;43907;-76
2022/05/20 09:51:51;;;;;;;;;;;20.80;99.90;;;;;;4305122;33;43772;-76
2022/05/20 09:54:38;;;;;;;;;;;20.80;99.90;;;;;;4317633;33;43620;-77
2022/05/20 09:57:22;;;;;;;;;;;20.90;99.90;;;;;;4305312;33;43864;-76
2022/05/20 10:00:09;;;;;;;;;;;20.90;99.90;;;;;;4317933;33;42930;-76
2022/05/20 10:02:55;;;;;;;;;;;20.90;99.90;;;;;;4304600;33;43745;-76
2022/05/20 10:05:28;;;;;;;;;;;20.90;99.90;;;;;;4317667;33;42452;-76
2022/05/20 10:08:07;;;;;;;;;;;20.90;99.90;;;;;;4317881;33;43023;-76
2022/05/20 10:11:04;;;;;;;;;;;20.90;99.90;;;;;;4317847;33;43256;-76
2022/05/20 10:13:31;;;;;;;;;;;21.00;99.90;;;;;;4304985;33;43477;-76
2022/05/20 10:16:21;;;;;;;;;;;21.00;99.90;;;;;;4304936;33;43274;-76
2022/05/20 10:18:53;;;;;;;;;;;21.00;99.90;;;;;;4287788;33;45901;-76
2022/05/20 10:21:45;;;;;;;;;;;21.00;99.90;;;;;;4317850;33;43766;-76
2022/05/20 10:24:12;;;;;;;;;;;21.10;99.90;;;;;;4317300;33;43678;-77
2022/05/20 10:26:58;;;;;;;;;;;21.10;99.90;;;;;;4304250;33;42502;-76
2022/05/20 10:32:34;;;;;;;;;;;21.10;99.90;;;;;;4317090;33;41797;-76
2022/05/20 10:35:10;;;;;;;;;;;21.20;99.90;;;;;;4317676;33;43031;-76
2022/05/20 10:37:53;;;;;;;;;;;21.20;99.90;;;;;;4317124;33;43683;-76
2022/05/20 10:40:26;;;;;;;;;;;21.20;99.90;;;;;;4317432;33;45192;-76
2022/05/20 10:43:17;;;;;;;;;;;21.30;99.90;;;;;;4317210;33;42424;-77
2022/05/20 10:48:56;;;;;;;;;;;21.30;99.90;;;;;;4317336;33;43519;-77
2022/05/20 10:51:23;;;;;;;;;;;21.30;99.90;;;;;;4316845;33;43707;-76
2022/05/20 10:53:53;;;;;;;;;;;21.30;99.90;;;;;;4316746;33;43092;-76
2022/05/20 10:56:20;;;;;;;;;;;21.30;99.90;;;;;;4317217;33;43776;-76
2022/05/20 10:58:53;;;;;;;;;;;21.30;99.90;;;;;;4317154;33;45006;-76
2022/05/20 11:01:24;;;;;;;;;;;21.30;99.90;;;;;;4303756;33;44959;-76
2022/05/20 11:03:54;;;;;;;;;;;21.30;99.90;;;;;;4304326;33;44296;-76
2022/05/20 11:06:21;;;;;;;;;;;21.30;99.90;;;;;;4303729;33;43790;-76
2022/05/20 11:08:54;;;;;;;;;;;21.30;99.90;;;;;;4303441;33;43727;-76
2022/05/20 11:11:55;;;;;;;;;;;21.30;99.90;;;;;;4305091;33;43915;-76
2022/05/20 11:14:34;;;;;;;;;;;21.30;99.90;;;;;;4303538;33;44188;-76
2022/05/20 11:17:01;;;;;;;;;;;21.40;99.90;;;;;;4317113;33;43717;-76
2022/05/20 11:19:39;;;;;;;;;;;21.40;99.90;;;;;;4316906;33;43486;-76
2022/05/20 11:22:10;;;;;;;;;;;21.40;99.90;;;;;;4316422;33;43547;-76
2022/05/20 11:24:50;;;;;;;;;;;21.40;99.90;;;;;;4316415;33;42201;-76
2022/05/20 11:27:25;;;;;;;;;;;21.40;99.90;;;;;;4316896;33;43175;-76
2022/05/20 11:30:02;;;;;;;;;;;21.40;99.90;;;;;;4316669;33;43841;-76
2022/05/20 11:32:53;;;;;;;;;;;21.50;99.90;;;;;;4316516;33;44287;-76
2022/05/20 11:35:30;;;;;;;;;;;21.50;99.90;;;;;;4309510;33;43023;-76
2022/05/20 11:37:57;;;;;;;;;;;21.50;99.90;;;;;;4316799;33;43016;-76
2022/05/20 11:40:42;;;;;;;;;;;21.50;99.90;;;;;;4303588;33;43874;-76
2022/05/20 11:43:15;;;;;;;;;;;21.60;99.90;;;;;;4316822;33;20425;-77
2022/05/20 11:46:06;;;;;;;;;;;21.60;99.90;;;;;;4316383;33;43683;-77
2022/05/20 11:48:57;;;;;;;;;;;21.60;99.90;;;;;;4303240;33;43643;-79
2022/05/20 11:51:33;;;;;;;;;;;21.60;99.90;;;;;;4303249;33;44884;-78
2022/05/20 11:54:03;;;;;;;;;;;21.60;99.90;;;;;;4303401;33;43146;-78
2022/05/20 11:56:39;;;;;;;;;;;21.60;99.90;;;;;;4303276;33;43371;-79
2022/05/20 11:59:16;;;;;;;;;;;21.60;99.90;;;;;;4316673;33;44261;-78
2022/05/20 12:01:54;;;;;;;;;;;21.50;99.90;;;;;;4316057;33;42918;-78
2022/05/20 12:04:27;;;;;;;;;;;21.50;99.90;;;;;;4316419;33;43253;-79
2022/05/20 12:07:00;;;;;;;;;;;21.50;99.90;;;;;;4316418;33;43069;-78
2022/05/20 12:09:39;;;;;;;;;;;21.50;99.90;;;;;;4316331;33;44199;-79
2022/05/20 12:12:12;;;;;;;;;;;21.50;99.90;;;;;;4316228;33;44807;-78
2022/05/20 12:14:58;;;;;;;;;;;21.50;99.90;;;;;;4315728;33;42933;-78
2022/05/20 12:17:28;;;;;;;;;;;21.50;99.90;;;;;;4302670;33;42950;-79
2022/05/20 12:25:58;;;;;;;;;;;21.50;99.90;;;;;;4308484;33;43657;-78
2022/05/20 12:28:32;;;;;;;;;;;21.50;99.90;;;;;;4316054;33;44202;-78
2022/05/20 12:31:06;;;;;;;;;;;21.50;99.90;;;;;;4316076;33;43200;-78
2022/05/20 12:33:57;;;;;;;;;;;21.50;99.90;;;;;;4303107;33;42104;-77
2022/05/20 12:36:28;;;;;;;;;;;21.50;99.90;;;;;;4316133;33;42915;-78
2022/05/20 12:39:09;;;;;;;;;;;21.50;99.90;;;;;;4316058;33;44273;-78
2022/05/20 12:41:36;;;;;;;;;;;21.50;99.90;;;;;;4315942;33;44941;-78
2022/05/20 12:44:15;;;;;;;;;;;21.50;99.90;;;;;;4316053;33;23161;-77
2022/05/20 12:46:48;;;;;;;;;;;21.50;99.90;;;;;;4302824;33;44212;-77
2022/05/20 12:49:26;;;;;;;;;;;21.50;99.90;;;;;;4302707;33;43573;-77
2022/05/20 12:52:08;;;;;;;;;;;21.50;99.90;;;;;;4315513;33;43105;-77
2022/05/20 12:54:41;;;;;;;;;;;21.60;99.90;;;;;;4303377;33;42380;-77
2022/05/20 12:57:21;;;;;;;;;;;21.60;99.90;;;;;;4319088;33;42999;-77
2022/05/20 12:59:58;;;;;;;;;;;21.60;99.90;;;;;;4306168;33;44224;-77
2022/05/20 13:02:31;;;;;;;;;;;21.60;99.90;;;;;;4318291;33;44971;-78
2022/05/20 13:05:07;;;;;;;;;;;21.60;99.90;;;;;;4318560;33;42580;-77
2022/05/20 13:07:40;;;;;;;;;;;21.60;99.90;;;;;;4318800;33;43193;-78
2022/05/20 13:10:26;;;;;;;;;;;21.60;99.90;;;;;;4318492;33;43596;-78
2022/05/20 13:12:54;;;;;;;;;;;21.60;99.90;;;;;;4305076;33;42791;-78
2022/05/20 13:15:26;;;;;;;;;;;21.60;99.90;;;;;;4319161;33;19998;-79
2022/05/20 13:18:00;;;;;;;;;;;21.60;99.90;;;;;;4318238;33;43704;-78
2022/05/20 13:20:31;;;;;;;;;;;21.60;99.90;;;;;;4305233;33;44182;-78
2022/05/20 13:23:00;;;;;;;;;;;21.70;99.90;;;;;;4318238;33;42482;-78
2022/05/20 13:25:29;;;;;;;;;;;21.70;99.90;;;;;;4317985;33;43578;-78
2022/05/20 13:27:59;;;;;;;;;;;21.70;99.90;;;;;;4304876;33;43935;-78
2022/05/20 13:30:31;;;;;;;;;;;21.70;99.90;;;;;;4317897;33;43581;-79
2022/05/20 13:33:12;;;;;;;;;;;21.70;99.90;;;;;;4305566;33;43256;-78
2022/05/20 13:35:43;;;;;;;;;;;21.70;99.90;;;;;;4318318;33;42873;-78
2022/05/20 13:38:11;;;;;;;;;;;21.70;99.90;;;;;;4317849;33;42805;-79
2022/05/20 13:40:42;;;;;;;;;;;21.70;99.90;;;;;;4318308;33;43021;-78
2022/05/20 13:43:14;;;;;;;;;;;21.70;99.90;;;;;;4318050;33;42926;-78
2022/05/20 13:51:39;;;;;;;;;;;21.70;99.90;;;;;;4317750;33;42662;-78
2022/05/20 13:54:13;;;;;;;;;;;21.60;99.90;;;;;;4318200;33;43025;-77
2022/05/20 13:56:42;;;;;;;;;;;21.70;99.90;;;;;;4317650;33;42942;-78
2022/05/20 13:59:19;;;;;;;;;;;21.60;99.90;;;;;;4318061;33;43862;-77
2022/05/20 14:02:06;;;;;;;;;;;21.60;99.90;;;;;;4304756;33;42530;-77
2022/05/20 14:04:48;;;;;;;;;;;21.60;99.90;;;;;;4317895;33;43870;-78
2022/05/20 14:07:31;;;;;;;;;;;21.60;99.90;;;;;;4304680;33;42606;-78
2022/05/20 14:10:13;;;;;;;;;;;21.60;99.90;;;;;;4317423;33;42092;-78
2022/05/20 14:12:45;;;;;;;;;;;21.60;99.90;;;;;;4317839;33;43454;-79
2022/05/20 14:15:30;;;;;;;;;;;21.50;99.90;;;;;;4317928;33;43861;-78
2022/05/20 14:18:06;;;;;;;;;;;21.50;99.90;;;;;;4318954;33;19998;-78
2022/05/20 14:20:47;;;;;;;;;;;21.50;99.90;;;;;;4317797;33;44125;-78
2022/05/20 14:23:23;;;;;;;;;;;21.50;99.90;;;;;;4304696;33;43240;-78
2022/05/20 14:26:09;;;;;;;;;;;21.50;99.90;;;;;;4304407;33;42167;-78
2022/05/20 14:28:45;;;;;;;;;;;21.50;99.90;;;;;;4304109;33;42773;-78
2022/05/20 14:31:43;;;;;;;;;;;21.50;99.90;;;;;;4304979;33;43720;-78
2022/05/20 14:34:13;;;;;;;;;;;21.50;99.90;;;;;;4312260;33;43019;-78
2022/05/20 14:36:44;;;;;;;;;;;21.50;99.90;;;;;;4317559;33;44280;-78
2022/05/20 14:39:21;;;;;;;;;;;21.50;99.90;;;;;;4304463;33;43088;-77
2022/05/20 14:41:55;;;;;;;;;;;21.50;99.90;;;;;;4317448;33;43987;-78
2022/05/20 14:44:22;;;;;;;;;;;21.50;99.90;;;;;;4317060;33;41875;-77
2022/05/20 14:47:15;;;;;;;;;;;21.50;99.90;;;;;;4304567;33;43280;-77
2022/05/20 14:49:51;;;;;;;;;;;21.40;99.90;;;;;;4316900;33;42576;-78
2022/05/20 14:52:43;;;;;;;;;;;21.40;99.90;;;;;;4317327;33;44766;-78
2022/05/20 14:55:25;;;;;;;;;;;21.40;99.90;;;;;;4316793;33;43668;-78
2022/05/20 14:58:00;;;;;;;;;;;21.40;99.90;;;;;;4304065;33;43290;-78
2022/05/20 15:00:30;;;;;;;;;;;21.40;99.90;;;;;;4316947;33;42949;-78
2022/05/20 15:03:00;;;;;;;;;;;21.30;99.90;;;;;;4316957;33;43092;-78
2022/05/20 15:05:29;;;;;;;;;;;21.30;99.90;;;;;;4316769;33;44389;-78
2022/05/20 15:08:01;;;;;;;;;;;21.30;99.90;;;;;;4303410;33;42734;-78
2022/05/20 15:10:31;;;;;;;;;;;21.30;99.90;;;;;;4303699;33;42133;-77
2022/05/20 15:13:04;;;;;;;;;;;21.30;99.90;;;;;;4316987;33;44223;-79
2022/05/20 15:15:32;;;;;;;;;;;21.20;99.90;;;;;;4317262;33;43688;-79
2022/05/20 15:18:10;;;;;;;;;;;21.20;99.90;;;;;;4302696;33;43968;-79
2022/05/20 15:20:50;;;;;;;;;;;21.20;99.90;;;;;;4303801;33;42660;-80
2022/05/20 15:23:20;;;;;;;;;;;21.10;99.90;;;;;;4317285;33;43888;-79
2022/05/20 15:25:53;;;;;;;;;;;21.10;99.90;;;;;;4303591;33;43638;-79
2022/05/20 15:37:04;;;;;;;;;;;21.00;99.90;;;;;;4316657;33;42858;-78
2022/05/20 15:39:35;;;;;;;;;;;21.00;99.90;;;;;;4316217;33;42558;-78